sensor_id;sensor_type;location;lat;lon;timestamp;temperature;humidity
39675;DHT22;27790;50.840;4.386;2023-11-19T00:00:42;15.20;99.90
39675;DHT22;27790;50.840;4.386;2023-11-19T00:03:08;15.10;99.90
39675;DHT22;27790;50.840;4.386;2023-11-19T00:05:33;15.10;99.90
39675;DHT22;27790;50.840;4.386;2023-11-19T00:07:59;15.20;99.90
39675;DHT22;27790;50.840;4.386;2023-11-19T00:10:24;15.20;99.90
39675;DHT22;27790;50.840;4.386;2023-11-19T00:12:50;15.20;99.90
39675;DHT22;27790;50.840;4.386;2023-11-19T00:15:16;15.20;99.90
39675;DHT22;27790;50.840;4.386;2023-11-19T00:17:45;15.10;99.90
39675;DHT22;27790;50.840;4.386;2023-11-19T00:20:12;15.20;99.90
39675;DHT22;27790;50.840;4.386;2023-11-19T00:22:39;15.20;99.90
39675;DHT22;27790;50.840;4.386;2023-11-19T00:25:05;15.20;99.90
39675;DHT22;27790;50.840;4.386;2023-11-19T00:27:31;15.20;99.90
39675;DHT22;27790;50.840;4.386;2023-11-19T00:29:57;15.20;99.90
39675;DHT22;27790;50.840;4.386;2023-11-19T00:32:23;15.20;99.90
39675;DHT22;27790;50.840;4.386;2023-11-19T00:34:48;15.20;99.90
39675;DHT22;27790;50.840;4.386;2023-11-19T00:37:14;15.20;99.90
39675;DHT22;27790;50.840;4.386;2023-11-19T00:39:43;15.30;99.90
39675;DHT22;27790;50.840;4.386;2023-11-19T00:42:09;15.20;99.90
39675;DHT22;27790;50.840;4.386;2023-11-19T00:44:36;15.20;99.90
39675;DHT22;27790;50.840;4.386;2023-11-19T00:47:02;15.20;99.90
39675;DHT22;27790;50.840;4.386;2023-11-19T00:49:28;15.10;99.90
39675;DHT22;27790;50.840;4.386;2023-11-19T00:51:53;15.10;99.90
39675;DHT22;27790;50.840;4.386;2023-11-19T00:54:19;15.10;99.90
39675;DHT22;27790;50.840;4.386;2023-11-19T00:56:44;15.10;99.90
39675;DHT22;27790;50.840;4.386;2023-11-19T00:59:10;15.10;99.90
39675;DHT22;27790;50.840;4.386;2023-11-19T01:01:36;15.20;99.90
39675;DHT22;27790;50.840;4.386;2023-11-19T01:04:01;15.20;99.90
39675;DHT22;27790;50.840;4.386;2023-11-19T01:06:31;15.20;99.90
39675;DHT22;27790;50.840;4.386;2023-11-19T01:08:57;15.10;99.90
39675;DHT22;27790;50.840;4.386;2023-11-19T01:11:24;15.20;99.90
39675;DHT22;27790;50.840;4.386;2023-11-19T01:13:50;15.20;99.90
39675;DHT22;27790;50.840;4.386;2023-11-19T01:16:16;15.20;99.90
39675;DHT22;27790;50.840;4.386;2023-11-19T01:18:42;15.20;99.90
39675;DHT22;27790;50.840;4.386;2023-11-19T01:21:08;15.20;99.90
39675;DHT22;27790;50.840;4.386;2023-11-19T01:23:34;15.30;99.90
39675;DHT22;27790;50.840;4.386;2023-11-19T01:26:00;15.30;99.90
39675;DHT22;27790;50.840;4.386;2023-11-19T01:28:25;15.30;99.90
39675;DHT22;27790;50.840;4.386;2023-11-19T01:30:51;15.20;99.90
39675;DHT22;27790;50.840;4.386;2023-11-19T01:33:17;15.20;99.90
39675;DHT22;27790;50.840;4.386;2023-11-19T01:35:42;15.30;99.90
39675;DHT22;27790;50.840;4.386;2023-11-19T01:38:08;15.20;99.90
39675;DHT22;27790;50.840;4.386;2023-11-19T01:40:37;15.20;99.90
39675;DHT22;27790;50.840;4.386;2023-11-19T01:43:05;15.20;99.90
39675;DHT22;27790;50.840;4.386;2023-11-19T01:45:31;15.20;99.90
39675;DHT22;27790;50.840;4.386;2023-11-19T01:47:59;15.10;99.90
39675;DHT22;27790;50.840;4.386;2023-11-19T01:50:26;15.10;99.90
39675;DHT22;27790;50.840;4.386;2023-11-19T01:52:53;15.10;99.90
39675;DHT22;27790;50.840;4.386;2023-11-19T01:55:20;15.00;99.90
39675;DHT22;27790;50.840;4.386;2023-11-19T01:57:48;15.00;99.90
39675;DHT22;27790;50.840;4.386;2023-11-19T02:00:15;15.00;99.90
39675;DHT22;27790;50.840;4.386;2023-11-19T02:02:42;15.00;99.90
39675;DHT22;27790;50.840;4.386;2023-11-19T02:05:09;15.00;99.90
39675;DHT22;27790;50.840;4.386;2023-11-19T02:07:34;15.00;99.90
39675;DHT22;27790;50.840;4.386;2023-11-19T02:10:00;15.00;99.90
39675;DHT22;27790;50.840;4.386;2023-11-19T02:12:26;14.80;99.90
39675;DHT22;27790;50.840;4.386;2023-11-19T02:14:57;14.80;99.90
39675;DHT22;27790;50.840;4.386;2023-11-19T02:17:28;14.60;99.90
39675;DHT22;27790;50.840;4.386;2023-11-19T02:19:57;14.60;99.90
39675;DHT22;27790;50.840;4.386;2023-11-19T02:22:22;14.60;99.90
39675;DHT22;27790;50.840;4.386;2023-11-19T02:24:51;14.50;99.90
39675;DHT22;27790;50.840;4.386;2023-11-19T02:27:31;14.50;99.90
39675;DHT22;27790;50.840;4.386;2023-11-19T02:29:59;14.40;99.90
39675;DHT22;27790;50.840;4.386;2023-11-19T02:32:27;14.40;99.90
39675;DHT22;27790;50.840;4.386;2023-11-19T02:34:53;14.40;99.90
39675;DHT22;27790;50.840;4.386;2023-11-19T02:37:19;14.50;99.90
39675;DHT22;27790;50.840;4.386;2023-11-19T02:39:44;14.50;99.90
39675;DHT22;27790;50.840;4.386;2023-11-19T02:42:10;14.50;99.90
39675;DHT22;27790;50.840;4.386;2023-11-19T02:44:36;14.50;99.90
39675;DHT22;27790;50.840;4.386;2023-11-19T02:47:02;14.60;99.90
39675;DHT22;27790;50.840;4.386;2023-11-19T02:49:28;14.60;99.90
39675;DHT22;27790;50.840;4.386;2023-11-19T02:51:54;14.60;99.90
39675;DHT22;27790;50.840;4.386;2023-11-19T02:54:19;14.70;99.90
39675;DHT22;27790;50.840;4.386;2023-11-19T02:56:46;14.70;99.90
39675;DHT22;27790;50.840;4.386;2023-11-19T02:59:20;14.80;99.90
39675;DHT22;27790;50.840;4.386;2023-11-19T03:01:53;14.70;99.90
39675;DHT22;27790;50.840;4.386;2023-11-19T03:04:19;14.70;99.90
39675;DHT22;27790;50.840;4.386;2023-11-19T03:06:46;14.60;99.90
39675;DHT22;27790;50.840;4.386;2023-11-19T03:09:11;14.40;99.90
39675;DHT22;27790;50.840;4.386;2023-11-19T03:11:37;14.30;99.90
39675;DHT22;27790;50.840;4.386;2023-11-19T03:14:03;14.20;99.90
39675;DHT22;27790;50.840;4.386;2023-11-19T03:16:29;14.10;99.90
39675;DHT22;27790;50.840;4.386;2023-11-19T03:18:55;14.10;99.90
39675;DHT22;27790;50.840;4.386;2023-11-19T03:21:30;14.20;99.90
39675;DHT22;27790;50.840;4.386;2023-11-19T03:23:59;14.10;99.90
39675;DHT22;27790;50.840;4.386;2023-11-19T03:26:29;13.90;99.90
39675;DHT22;27790;50.840;4.386;2023-11-19T03:28:54;13.90;99.90
39675;DHT22;27790;50.840;4.386;2023-11-19T03:31:22;13.80;99.90
39675;DHT22;27790;50.840;4.386;2023-11-19T03:33:48;13.80;99.90
39675;DHT22;27790;50.840;4.386;2023-11-19T03:36:14;13.70;99.90
39675;DHT22;27790;50.840;4.386;2023-11-19T03:38:39;13.70;99.90
39675;DHT22;27790;50.840;4.386;2023-11-19T03:41:14;13.60;99.90
39675;DHT22;27790;50.840;4.386;2023-11-19T03:43:40;13.70;99.90
39675;DHT22;27790;50.840;4.386;2023-11-19T03:46:19;13.60;99.90
39675;DHT22;27790;50.840;4.386;2023-11-19T03:48:49;13.50;99.90
39675;DHT22;27790;50.840;4.386;2023-11-19T03:51:14;13.50;99.90
39675;DHT22;27790;50.840;4.386;2023-11-19T03:53:49;13.50;99.90
39675;DHT22;27790;50.840;4.386;2023-11-19T03:56:15;13.40;99.90
39675;DHT22;27790;50.840;4.386;2023-11-19T03:58:40;13.40;99.90
39675;DHT22;27790;50.840;4.386;2023-11-19T04:01:11;13.30;99.90
39675;DHT22;27790;50.840;4.386;2023-11-19T04:03:38;13.30;99.90
39675;DHT22;27790;50.840;4.386;2023-11-19T04:06:04;13.40;99.90
39675;DHT22;27790;50.840;4.386;2023-11-19T04:08:30;13.40;99.90
39675;DHT22;27790;50.840;4.386;2023-11-19T04:10:55;13.60;99.90
39675;DHT22;27790;50.840;4.386;2023-11-19T04:13:21;13.70;99.90
39675;DHT22;27790;50.840;4.386;2023-11-19T04:15:49;13.80;99.90
39675;DHT22;27790;50.840;4.386;2023-11-19T04:18:14;13.80;99.90
39675;DHT22;27790;50.840;4.386;2023-11-19T04:20:40;13.80;99.90
39675;DHT22;27790;50.840;4.386;2023-11-19T04:23:07;13.70;99.90
39675;DHT22;27790;50.840;4.386;2023-11-19T04:25:33;13.70;99.90
39675;DHT22;27790;50.840;4.386;2023-11-19T04:28:00;13.70;99.90
39675;DHT22;27790;50.840;4.386;2023-11-19T04:30:25;13.60;99.90
39675;DHT22;27790;50.840;4.386;2023-11-19T04:32:51;13.60;99.90
39675;DHT22;27790;50.840;4.386;2023-11-19T04:35:17;13.60;99.90
39675;DHT22;27790;50.840;4.386;2023-11-19T04:37:42;13.50;99.90
39675;DHT22;27790;50.840;4.386;2023-11-19T04:40:08;13.50;99.90
39675;DHT22;27790;50.840;4.386;2023-11-19T04:42:35;13.40;99.90
39675;DHT22;27790;50.840;4.386;2023-11-19T04:45:00;13.40;99.90
39675;DHT22;27790;50.840;4.386;2023-11-19T04:47:26;13.40;99.90
39675;DHT22;27790;50.840;4.386;2023-11-19T04:49:51;13.50;99.90
39675;DHT22;27790;50.840;4.386;2023-11-19T04:52:17;13.40;99.90
39675;DHT22;27790;50.840;4.386;2023-11-19T04:54:43;13.50;99.90
39675;DHT22;27790;50.840;4.386;2023-11-19T04:57:09;13.50;99.90
39675;DHT22;27790;50.840;4.386;2023-11-19T04:59:36;13.50;99.90
39675;DHT22;27790;50.840;4.386;2023-11-19T05:02:02;13.50;99.90
39675;DHT22;27790;50.840;4.386;2023-11-19T05:04:29;13.60;99.90
39675;DHT22;27790;50.840;4.386;2023-11-19T05:06:55;13.70;99.90
39675;DHT22;27790;50.840;4.386;2023-11-19T05:09:20;13.70;99.90
39675;DHT22;27790;50.840;4.386;2023-11-19T05:11:46;13.60;99.90
39675;DHT22;27790;50.840;4.386;2023-11-19T05:14:11;13.50;99.90
39675;DHT22;27790;50.840;4.386;2023-11-19T05:16:40;13.40;99.90
39675;DHT22;27790;50.840;4.386;2023-11-19T05:19:05;13.30;99.90
39675;DHT22;27790;50.840;4.386;2023-11-19T05:21:31;13.30;99.90
39675;DHT22;27790;50.840;4.386;2023-11-19T05:23:57;13.30;99.90
39675;DHT22;27790;50.840;4.386;2023-11-19T05:26:23;13.20;99.90
39675;DHT22;27790;50.840;4.386;2023-11-19T05:28:50;13.10;99.90
39675;DHT22;27790;50.840;4.386;2023-11-19T05:31:16;13.10;99.90
39675;DHT22;27790;50.840;4.386;2023-11-19T05:33:43;13.20;99.90
39675;DHT22;27790;50.840;4.386;2023-11-19T05:36:10;13.20;99.90
39675;DHT22;27790;50.840;4.386;2023-11-19T05:38:36;13.30;99.90
39675;DHT22;27790;50.840;4.386;2023-11-19T05:41:02;13.30;99.90
39675;DHT22;27790;50.840;4.386;2023-11-19T05:43:28;13.40;99.90
39675;DHT22;27790;50.840;4.386;2023-11-19T05:45:54;13.40;99.90
39675;DHT22;27790;50.840;4.386;2023-11-19T05:48:19;13.40;99.90
39675;DHT22;27790;50.840;4.386;2023-11-19T05:50:45;13.40;99.90
39675;DHT22;27790;50.840;4.386;2023-11-19T05:53:11;13.40;99.90
39675;DHT22;27790;50.840;4.386;2023-11-19T05:55:38;13.40;99.90
39675;DHT22;27790;50.840;4.386;2023-11-19T05:58:12;13.30;99.90
39675;DHT22;27790;50.840;4.386;2023-11-19T06:00:38;13.20;99.90
39675;DHT22;27790;50.840;4.386;2023-11-19T06:03:05;13.20;99.90
39675;DHT22;27790;50.840;4.386;2023-11-19T06:05:32;13.10;99.90
39675;DHT22;27790;50.840;4.386;2023-11-19T06:07:57;13.00;99.90
39675;DHT22;27790;50.840;4.386;2023-11-19T06:10:23;13.00;99.90
39675;DHT22;27790;50.840;4.386;2023-11-19T06:12:54;13.00;99.90
39675;DHT22;27790;50.840;4.386;2023-11-19T06:15:22;12.90;99.90
39675;DHT22;27790;50.840;4.386;2023-11-19T06:17:48;12.90;99.90
39675;DHT22;27790;50.840;4.386;2023-11-19T06:20:14;12.90;99.90
39675;DHT22;27790;50.840;4.386;2023-11-19T06:22:39;12.80;99.90
39675;DHT22;27790;50.840;4.386;2023-11-19T06:25:08;12.80;99.90
39675;DHT22;27790;50.840;4.386;2023-11-19T06:27:33;12.80;99.90
39675;DHT22;27790;50.840;4.386;2023-11-19T06:30:00;12.70;99.90
39675;DHT22;27790;50.840;4.386;2023-11-19T06:32:26;12.70;99.90
39675;DHT22;27790;50.840;4.386;2023-11-19T06:34:51;12.60;99.90
39675;DHT22;27790;50.840;4.386;2023-11-19T06:37:17;12.60;99.90
39675;DHT22;27790;50.840;4.386;2023-11-19T06:39:42;12.60;99.90
39675;DHT22;27790;50.840;4.386;2023-11-19T06:42:08;12.70;99.90
39675;DHT22;27790;50.840;4.386;2023-11-19T06:44:33;12.60;99.90
39675;DHT22;27790;50.840;4.386;2023-11-19T06:46:59;12.60;99.90
39675;DHT22;27790;50.840;4.386;2023-11-19T06:49:25;12.70;99.90
39675;DHT22;27790;50.840;4.386;2023-11-19T06:51:51;12.70;99.90
39675;DHT22;27790;50.840;4.386;2023-11-19T06:54:16;12.70;99.90
39675;DHT22;27790;50.840;4.386;2023-11-19T06:56:42;12.60;99.90
39675;DHT22;27790;50.840;4.386;2023-11-19T06:59:08;12.60;99.90
39675;DHT22;27790;50.840;4.386;2023-11-19T07:01:37;12.60;99.90
39675;DHT22;27790;50.840;4.386;2023-11-19T07:04:03;12.70;99.90
39675;DHT22;27790;50.840;4.386;2023-11-19T07:06:35;12.60;99.90
39675;DHT22;27790;50.840;4.386;2023-11-19T07:09:04;12.60;99.90
39675;DHT22;27790;50.840;4.386;2023-11-19T07:11:41;12.50;99.90
39675;DHT22;27790;50.840;4.386;2023-11-19T07:14:07;12.50;99.90
39675;DHT22;27790;50.840;4.386;2023-11-19T07:16:37;12.60;99.90
39675;DHT22;27790;50.840;4.386;2023-11-19T07:19:06;12.80;99.90
39675;DHT22;27790;50.840;4.386;2023-11-19T07:21:32;12.80;99.90
39675;DHT22;27790;50.840;4.386;2023-11-19T07:23:58;12.80;99.90
39675;DHT22;27790;50.840;4.386;2023-11-19T07:26:24;12.90;99.90
39675;DHT22;27790;50.840;4.386;2023-11-19T07:28:50;13.00;99.90
39675;DHT22;27790;50.840;4.386;2023-11-19T07:31:16;13.10;99.90
39675;DHT22;27790;50.840;4.386;2023-11-19T07:33:45;13.20;99.90
39675;DHT22;27790;50.840;4.386;2023-11-19T07:36:11;13.10;99.90
39675;DHT22;27790;50.840;4.386;2023-11-19T07:38:37;13.00;99.90
39675;DHT22;27790;50.840;4.386;2023-11-19T07:41:04;12.90;99.90
39675;DHT22;27790;50.840;4.386;2023-11-19T07:43:30;12.90;99.90
39675;DHT22;27790;50.840;4.386;2023-11-19T07:45:56;13.10;99.90
39675;DHT22;27790;50.840;4.386;2023-11-19T07:48:24;13.00;99.90
39675;DHT22;27790;50.840;4.386;2023-11-19T07:50:50;12.90;99.90
39675;DHT22;27790;50.840;4.386;2023-11-19T07:53:19;13.00;99.90
39675;DHT22;27790;50.840;4.386;2023-11-19T07:55:45;13.00;99.90
39675;DHT22;27790;50.840;4.386;2023-11-19T07:58:11;13.10;99.90
39675;DHT22;27790;50.840;4.386;2023-11-19T08:00:37;13.30;99.90
39675;DHT22;27790;50.840;4.386;2023-11-19T08:03:04;13.30;99.90
39675;DHT22;27790;50.840;4.386;2023-11-19T08:05:33;13.30;99.90
39675;DHT22;27790;50.840;4.386;2023-11-19T08:07:58;13.40;99.90
39675;DHT22;27790;50.840;4.386;2023-11-19T08:10:24;13.30;99.90
39675;DHT22;27790;50.840;4.386;2023-11-19T08:12:49;13.30;99.90
39675;DHT22;27790;50.840;4.386;2023-11-19T08:15:15;13.40;99.90
39675;DHT22;27790;50.840;4.386;2023-11-19T08:17:43;13.50;99.90
39675;DHT22;27790;50.840;4.386;2023-11-19T08:20:09;13.60;99.90
39675;DHT22;27790;50.840;4.386;2023-11-19T08:22:36;13.60;99.90
39675;DHT22;27790;50.840;4.386;2023-11-19T08:25:07;13.60;99.90
39675;DHT22;27790;50.840;4.386;2023-11-19T08:27:33;13.70;99.90
39675;DHT22;27790;50.840;4.386;2023-11-19T08:29:59;13.70;99.90
39675;DHT22;27790;50.840;4.386;2023-11-19T08:32:25;13.70;99.90
39675;DHT22;27790;50.840;4.386;2023-11-19T08:34:51;13.80;99.90
39675;DHT22;27790;50.840;4.386;2023-11-19T08:37:17;14.00;99.90
39675;DHT22;27790;50.840;4.386;2023-11-19T08:39:49;14.10;99.90
39675;DHT22;27790;50.840;4.386;2023-11-19T08:42:16;14.10;99.90
39675;DHT22;27790;50.840;4.386;2023-11-19T08:44:42;14.10;99.90
39675;DHT22;27790;50.840;4.386;2023-11-19T08:47:09;13.90;99.90
39675;DHT22;27790;50.840;4.386;2023-11-19T08:49:36;13.90;99.90
39675;DHT22;27790;50.840;4.386;2023-11-19T08:52:01;13.80;99.90
39675;DHT22;27790;50.840;4.386;2023-11-19T08:54:27;13.70;99.90
39675;DHT22;27790;50.840;4.386;2023-11-19T08:56:53;13.90;99.90
39675;DHT22;27790;50.840;4.386;2023-11-19T08:59:18;13.90;99.90
39675;DHT22;27790;50.840;4.386;2023-11-19T09:01:44;13.90;99.90
39675;DHT22;27790;50.840;4.386;2023-11-19T09:04:10;14.10;99.90
39675;DHT22;27790;50.840;4.386;2023-11-19T09:06:36;14.20;99.90
39675;DHT22;27790;50.840;4.386;2023-11-19T09:09:01;14.20;99.90
39675;DHT22;27790;50.840;4.386;2023-11-19T09:11:28;14.10;99.90
39675;DHT22;27790;50.840;4.386;2023-11-19T09:13:54;14.00;99.90
39675;DHT22;27790;50.840;4.386;2023-11-19T09:16:20;14.00;99.90
39675;DHT22;27790;50.840;4.386;2023-11-19T09:18:45;14.00;99.90
39675;DHT22;27790;50.840;4.386;2023-11-19T09:21:11;14.20;99.90
39675;DHT22;27790;50.840;4.386;2023-11-19T09:23:37;14.10;99.90
39675;DHT22;27790;50.840;4.386;2023-11-19T09:26:13;14.20;99.90
39675;DHT22;27790;50.840;4.386;2023-11-19T09:28:39;14.30;99.90
39675;DHT22;27790;50.840;4.386;2023-11-19T09:31:15;14.30;99.90
39675;DHT22;27790;50.840;4.386;2023-11-19T09:33:40;14.30;99.90
39675;DHT22;27790;50.840;4.386;2023-11-19T09:36:06;14.30;99.90
39675;DHT22;27790;50.840;4.386;2023-11-19T09:38:32;14.20;99.90
39675;DHT22;27790;50.840;4.386;2023-11-19T09:40:59;14.20;99.90
39675;DHT22;27790;50.840;4.386;2023-11-19T09:43:27;14.20;99.90
39675;DHT22;27790;50.840;4.386;2023-11-19T09:45:55;14.10;99.90
39675;DHT22;27790;50.840;4.386;2023-11-19T09:48:21;14.20;99.90
39675;DHT22;27790;50.840;4.386;2023-11-19T09:50:50;14.30;99.90
39675;DHT22;27790;50.840;4.386;2023-11-19T09:53:17;14.40;99.90
39675;DHT22;27790;50.840;4.386;2023-11-19T09:55:43;14.60;99.90
39675;DHT22;27790;50.840;4.386;2023-11-19T09:58:09;14.80;99.90
39675;DHT22;27790;50.840;4.386;2023-11-19T10:00:36;14.90;99.90
39675;DHT22;27790;50.840;4.386;2023-11-19T10:03:02;14.70;99.90
39675;DHT22;27790;50.840;4.386;2023-11-19T10:05:30;14.60;99.90
39675;DHT22;27790;50.840;4.386;2023-11-19T10:07:56;14.50;99.90
39675;DHT22;27790;50.840;4.386;2023-11-19T10:10:21;14.50;99.90
39675;DHT22;27790;50.840;4.386;2023-11-19T10:12:53;14.50;99.90
39675;DHT22;27790;50.840;4.386;2023-11-19T10:15:24;14.60;99.90
39675;DHT22;27790;50.840;4.386;2023-11-19T10:17:55;14.60;99.90
39675;DHT22;27790;50.840;4.386;2023-11-19T10:20:21;14.60;99.90
39675;DHT22;27790;50.840;4.386;2023-11-19T10:22:47;14.60;99.90
39675;DHT22;27790;50.840;4.386;2023-11-19T10:25:26;14.60;99.90
39675;DHT22;27790;50.840;4.386;2023-11-19T10:27:53;14.70;99.90
39675;DHT22;27790;50.840;4.386;2023-11-19T10:30:23;14.80;99.90
39675;DHT22;27790;50.840;4.386;2023-11-19T10:35:53;15.10;99.90
39675;DHT22;27790;50.840;4.386;2023-11-19T10:38:20;15.30;99.90
39675;DHT22;27790;50.840;4.386;2023-11-19T10:40:47;15.40;99.90
39675;DHT22;27790;50.840;4.386;2023-11-19T10:43:13;15.30;99.90
39675;DHT22;27790;50.840;4.386;2023-11-19T10:45:39;15.20;99.90
39675;DHT22;27790;50.840;4.386;2023-11-19T10:48:06;15.20;99.90
39675;DHT22;27790;50.840;4.386;2023-11-19T10:50:37;15.30;99.90
39675;DHT22;27790;50.840;4.386;2023-11-19T10:53:04;15.20;99.90
39675;DHT22;27790;50.840;4.386;2023-11-19T10:55:34;15.30;99.90
39675;DHT22;27790;50.840;4.386;2023-11-19T10:58:09;15.20;99.90
39675;DHT22;27790;50.840;4.386;2023-11-19T11:00:48;15.20;99.90
39675;DHT22;27790;50.840;4.386;2023-11-19T11:03:18;15.10;99.90
39675;DHT22;27790;50.840;4.386;2023-11-19T11:05:47;15.10;99.90
39675;DHT22;27790;50.840;4.386;2023-11-19T11:08:13;15.10;99.90
39675;DHT22;27790;50.840;4.386;2023-11-19T11:10:45;15.10;99.90
39675;DHT22;27790;50.840;4.386;2023-11-19T11:13:13;15.30;99.90
39675;DHT22;27790;50.840;4.386;2023-11-19T11:15:39;15.30;99.90
39675;DHT22;27790;50.840;4.386;2023-11-19T11:18:08;15.20;99.90
39675;DHT22;27790;50.840;4.386;2023-11-19T11:20:35;15.00;99.90
39675;DHT22;27790;50.840;4.386;2023-11-19T11:23:29;15.10;99.90
39675;DHT22;27790;50.840;4.386;2023-11-19T11:29:01;14.80;99.90
39675;DHT22;27790;50.840;4.386;2023-11-19T11:34:44;14.80;99.90
39675;DHT22;27790;50.840;4.386;2023-11-19T11:39:53;14.90;99.90
39675;DHT22;27790;50.840;4.386;2023-11-19T11:45:07;14.70;99.90
39675;DHT22;27790;50.840;4.386;2023-11-19T11:50:09;14.70;99.90
39675;DHT22;27790;50.840;4.386;2023-11-19T11:55:35;14.70;99.90
39675;DHT22;27790;50.840;4.386;2023-11-19T11:58:02;14.90;99.90
39675;DHT22;27790;50.840;4.386;2023-11-19T12:00:36;15.10;99.90
39675;DHT22;27790;50.840;4.386;2023-11-19T12:03:05;15.30;99.90
39675;DHT22;27790;50.840;4.386;2023-11-19T12:05:32;15.40;99.90
39675;DHT22;27790;50.840;4.386;2023-11-19T12:07:59;15.50;99.90
39675;DHT22;27790;50.840;4.386;2023-11-19T12:10:30;15.60;99.90
39675;DHT22;27790;50.840;4.386;2023-11-19T12:12:59;15.50;99.90
39675;DHT22;27790;50.840;4.386;2023-11-19T12:15:25;15.60;99.90
39675;DHT22;27790;50.840;4.386;2023-11-19T12:17:56;15.60;99.90
39675;DHT22;27790;50.840;4.386;2023-11-19T12:20:26;15.50;99.90
39675;DHT22;27790;50.840;4.386;2023-11-19T12:22:53;15.30;99.90
39675;DHT22;27790;50.840;4.386;2023-11-19T12:25:19;15.30;99.90
39675;DHT22;27790;50.840;4.386;2023-11-19T12:27:50;15.20;99.90
39675;DHT22;27790;50.840;4.386;2023-11-19T12:30:25;14.90;99.90
39675;DHT22;27790;50.840;4.386;2023-11-19T12:32:52;14.90;99.90
39675;DHT22;27790;50.840;4.386;2023-11-19T12:35:19;14.90;99.90
39675;DHT22;27790;50.840;4.386;2023-11-19T12:37:50;14.80;99.90
39675;DHT22;27790;50.840;4.386;2023-11-19T12:40:23;14.80;99.90
39675;DHT22;27790;50.840;4.386;2023-11-19T12:42:50;14.70;99.90
39675;DHT22;27790;50.840;4.386;2023-11-19T12:45:16;14.70;99.90
39675;DHT22;27790;50.840;4.386;2023-11-19T12:47:43;14.70;99.90
39675;DHT22;27790;50.840;4.386;2023-11-19T12:50:09;14.70;99.90
39675;DHT22;27790;50.840;4.386;2023-11-19T12:52:38;14.70;99.90
39675;DHT22;27790;50.840;4.386;2023-11-19T12:55:05;14.80;99.90
39675;DHT22;27790;50.840;4.386;2023-11-19T12:57:38;14.80;99.90
39675;DHT22;27790;50.840;4.386;2023-11-19T13:00:05;14.80;99.90
39675;DHT22;27790;50.840;4.386;2023-11-19T13:02:50;14.90;99.90
39675;DHT22;27790;50.840;4.386;2023-11-19T13:08:05;14.90;99.90
39675;DHT22;27790;50.840;4.386;2023-11-19T13:10:55;15.00;99.90
39675;DHT22;27790;50.840;4.386;2023-11-19T13:13:20;15.00;99.90
39675;DHT22;27790;50.840;4.386;2023-11-19T13:15:46;15.00;99.90
39675;DHT22;27790;50.840;4.386;2023-11-19T13:18:12;15.10;99.90
39675;DHT22;27790;50.840;4.386;2023-11-19T13:20:38;15.10;99.90
39675;DHT22;27790;50.840;4.386;2023-11-19T13:23:04;15.20;99.90
39675;DHT22;27790;50.840;4.386;2023-11-19T13:25:31;15.20;99.90
39675;DHT22;27790;50.840;4.386;2023-11-19T13:27:58;15.20;99.90
39675;DHT22;27790;50.840;4.386;2023-11-19T13:30:24;15.30;99.90
39675;DHT22;27790;50.840;4.386;2023-11-19T13:32:50;15.20;99.90
39675;DHT22;27790;50.840;4.386;2023-11-19T13:35:17;15.10;99.90
39675;DHT22;27790;50.840;4.386;2023-11-19T13:37:44;15.10;99.90
39675;DHT22;27790;50.840;4.386;2023-11-19T13:40:10;15.00;99.90
39675;DHT22;27790;50.840;4.386;2023-11-19T13:42:41;15.00;99.90
39675;DHT22;27790;50.840;4.386;2023-11-19T13:45:11;14.90;99.90
39675;DHT22;27790;50.840;4.386;2023-11-19T13:47:39;14.90;99.90
39675;DHT22;27790;50.840;4.386;2023-11-19T13:50:13;14.80;99.90
39675;DHT22;27790;50.840;4.386;2023-11-19T13:52:41;14.80;99.90
39675;DHT22;27790;50.840;4.386;2023-11-19T13:55:08;14.60;99.90
39675;DHT22;27790;50.840;4.386;2023-11-19T13:57:35;14.50;99.90
39675;DHT22;27790;50.840;4.386;2023-11-19T14:00:04;14.50;99.90
39675;DHT22;27790;50.840;4.386;2023-11-19T14:02:46;14.40;99.90
39675;DHT22;27790;50.840;4.386;2023-11-19T14:05:13;14.40;99.90
39675;DHT22;27790;50.840;4.386;2023-11-19T14:07:39;14.50;99.90
39675;DHT22;27790;50.840;4.386;2023-11-19T14:10:09;14.50;99.90
39675;DHT22;27790;50.840;4.386;2023-11-19T14:12:39;14.60;99.90
39675;DHT22;27790;50.840;4.386;2023-11-19T14:15:06;14.60;99.90
39675;DHT22;27790;50.840;4.386;2023-11-19T14:17:32;14.70;99.90
39675;DHT22;27790;50.840;4.386;2023-11-19T14:19:58;14.70;99.90
39675;DHT22;27790;50.840;4.386;2023-11-19T14:22:23;14.70;99.90
39675;DHT22;27790;50.840;4.386;2023-11-19T14:24:50;14.60;99.90
39675;DHT22;27790;50.840;4.386;2023-11-19T14:27:15;14.60;99.90
39675;DHT22;27790;50.840;4.386;2023-11-19T14:29:43;14.50;99.90
39675;DHT22;27790;50.840;4.386;2023-11-19T14:32:10;14.50;99.90
39675;DHT22;27790;50.840;4.386;2023-11-19T14:34:35;14.30;99.90
39675;DHT22;27790;50.840;4.386;2023-11-19T14:37:01;14.20;99.90
39675;DHT22;27790;50.840;4.386;2023-11-19T14:39:27;14.00;99.90
39675;DHT22;27790;50.840;4.386;2023-11-19T14:41:54;14.00;99.90
39675;DHT22;27790;50.840;4.386;2023-11-19T14:44:23;14.20;99.90
39675;DHT22;27790;50.840;4.386;2023-11-19T14:46:49;14.20;99.90
39675;DHT22;27790;50.840;4.386;2023-11-19T14:49:15;14.20;99.90
39675;DHT22;27790;50.840;4.386;2023-11-19T14:51:40;14.20;99.90
39675;DHT22;27790;50.840;4.386;2023-11-19T14:54:06;14.10;99.90
39675;DHT22;27790;50.840;4.386;2023-11-19T14:56:32;14.20;99.90
39675;DHT22;27790;50.840;4.386;2023-11-19T14:58:58;14.20;99.90
39675;DHT22;27790;50.840;4.386;2023-11-19T15:01:24;14.20;99.90
39675;DHT22;27790;50.840;4.386;2023-11-19T15:03:50;14.20;99.90
39675;DHT22;27790;50.840;4.386;2023-11-19T15:06:15;14.20;99.90
39675;DHT22;27790;50.840;4.386;2023-11-19T15:08:41;14.20;99.90
39675;DHT22;27790;50.840;4.386;2023-11-19T15:11:07;14.30;99.90
39675;DHT22;27790;50.840;4.386;2023-11-19T15:13:34;14.20;99.90
39675;DHT22;27790;50.840;4.386;2023-11-19T15:16:02;14.20;99.90
39675;DHT22;27790;50.840;4.386;2023-11-19T15:18:27;14.10;99.90
39675;DHT22;27790;50.840;4.386;2023-11-19T15:20:53;14.10;99.90
39675;DHT22;27790;50.840;4.386;2023-11-19T15:23:18;14.10;99.90
39675;DHT22;27790;50.840;4.386;2023-11-19T15:25:45;14.10;99.90
39675;DHT22;27790;50.840;4.386;2023-11-19T15:28:10;14.20;99.90
39675;DHT22;27790;50.840;4.386;2023-11-19T15:30:37;14.20;99.90
39675;DHT22;27790;50.840;4.386;2023-11-19T15:33:02;14.20;99.90
39675;DHT22;27790;50.840;4.386;2023-11-19T15:35:28;14.40;99.90
39675;DHT22;27790;50.840;4.386;2023-11-19T15:37:53;14.20;99.90
39675;DHT22;27790;50.840;4.386;2023-11-19T15:40:21;14.30;99.90
39675;DHT22;27790;50.840;4.386;2023-11-19T15:42:46;14.30;99.90
39675;DHT22;27790;50.840;4.386;2023-11-19T15:45:13;14.40;99.90
39675;DHT22;27790;50.840;4.386;2023-11-19T15:47:38;14.40;99.90
39675;DHT22;27790;50.840;4.386;2023-11-19T15:50:06;14.40;99.90
39675;DHT22;27790;50.840;4.386;2023-11-19T15:52:32;14.40;99.90